Chippewa Falls, WI

12:18 AM CST on January 20, 2017 (GMT -0600)
Lafayette | | Change Station

Elev 928 ft 44.92 °N, 91.32 °W | Updated 4 seconds ago

Rain
Rain
34.5 °F
Feels Like 34 °F
N
0.0
Wind Variable Wind from NE

Today
High -- | Low -- °F
--% Chance of Precip.
Yesterday
High -- | Low -- °F
Precip. -- in
Pressure 29.74 in
Visibility 5.0 miles
Clouds Overcast 4100 ft
Windchill 34 °F
Dew Point 34 °F
Humidity 96%
Rainfall 0.00 in
Snow Depth Not available.
7:36 AM 4:57 PM
Waning Gibbous, 47% visible
METAR KEAU 200556Z AUTO 08006KT 5SM -RA BR OVC041 02/01 A2971 RMK AO2 UPE09RAB07 SLP069 P0001 60002 T00220006 10039 20011 400441039 58010
Pressure 29.74 in
Visibility 5.0 miles
Clouds Overcast 4100 ft
Windchill 34 °F
Dew Point 34 °F
Humidity 96%
Rainfall 0.00 in
Snow Depth Not available.
7:36 AM 4:57 PM
Waning Gibbous, 47% visible
METAR KEAU 200556Z AUTO 08006KT 5SM -RA BR OVC041 02/01 A2971 RMK AO2 UPE09RAB07 SLP069 P0001 60002 T00220006 10039 20011 400441039 58010

Get Your Daily Forecast Email!

Thanks for signing up!

Be on the lookout for a verification email in your inbox.

You'll start receiving the daily forecast at 8 AM.

×

10-Day Weather Forecast

Almanac

Astronomy

Jan. 20, 2017 Rise Set
Actual Time
Civil Twilight
Nautical Twilight
Astronomical Twilight
Moon
Length of Visible Light
Length of Day
Tomorrow will be .
, % of the Moon is Illuminated

Today's Extremes

State Highs State Lows

Community

WunderPhotos

Upload Photos

1,962,540 photos uploaded!

WunderBlog® & News

Nearby

Air Quality

  Air Quality AQ Index Pollutant
Not available.

Snow Depth

Station Depth Elevation

Earthquake Activity

City Distance Mag. Time & Date
Minimum magnitude displayed is 2.5.

Coastal Water Temperatures

Place Temperature

Stations

Nearby Weather Stations

Station Location Temp. Windchill Dew Point Humidity Wind Precip. Elev Updated Type
                   

Watches & Warnings

There are currently no watches in effect.